Terminal Aerodrome Forecast
Issued by NWS

Home | Current Version | Previous Version | Text Only | Print | Product List | Glossary Off
Versions: 1 2 3 4 5 6 7 8 9 10 11 12 13 14

572
FTUS42 KMHX 062337
TAFPGV
TAF
KPGV 062337Z 0700/0724 04006KT P6SM OVC080
     FM071100 02013G20KT 6SM -RASN SCT015 OVC035
     FM071500 01016G25KT 6SM -RA SCT015 OVC035
      AMD LTD TO CLD VIS AND WIND=

USA.gov is the U.S. government's official web portal to all federal, state and local government web resources and services.